createdAt,value
2022-08-20T00:00:38.993Z,20.82
2022-08-20T00:03:07.102Z,20.83
2022-08-20T00:05:35.765Z,20.82
2022-08-20T00:08:04.073Z,20.87
2022-08-20T00:10:32.106Z,20.87
2022-08-20T00:12:58.659Z,20.82
2022-08-20T00:15:28.491Z,20.75
2022-08-20T00:17:56.189Z,20.76
2022-08-20T00:20:24.834Z,20.78
2022-08-20T00:22:51.448Z,20.79
2022-08-20T00:25:18.371Z,20.83
2022-08-20T00:27:44.873Z,20.81
2022-08-20T00:30:12.659Z,20.85
2022-08-20T00:32:49.517Z,20.88
2022-08-20T00:35:18.306Z,20.67
2022-08-20T00:37:44.725Z,20.62
2022-08-20T00:40:22.298Z,20.68
2022-08-20T00:42:54.191Z,20.76
2022-08-20T00:45:20.927Z,20.82
2022-08-20T00:47:51.270Z,20.77
2022-08-20T00:50:20.331Z,20.78
2022-08-20T00:52:50.259Z,20.75
2022-08-20T00:55:19.642Z,20.73
2022-08-20T00:58:00.662Z,20.77
2022-08-20T01:00:28.276Z,20.77
2022-08-20T01:02:55.633Z,20.77
2022-08-20T01:05:23.568Z,20.81
2022-08-20T01:07:56.443Z,20.78
2022-08-20T01:10:28.388Z,20.77
2022-08-20T01:12:59.229Z,20.77
2022-08-20T01:15:30.974Z,20.78
2022-08-20T01:17:59.168Z,20.82
2022-08-20T01:20:25.565Z,20.84
2022-08-20T01:23:17.986Z,20.83
2022-08-20T01:25:53.511Z,20.86
2022-08-20T01:28:23.063Z,20.84
2022-08-20T01:30:52.183Z,20.86
2022-08-20T01:33:18.935Z,20.80
2022-08-20T01:35:45.490Z,20.64
2022-08-20T01:38:12.692Z,20.54
2022-08-20T01:40:39.860Z,20.53
2022-08-20T01:43:09.078Z,20.59
2022-08-20T01:45:38.258Z,20.55
2022-08-20T01:48:06.510Z,20.49
2022-08-20T01:50:34.819Z,20.56
2022-08-20T01:53:06.751Z,20.63
2022-08-20T01:55:33.321Z,20.66
2022-08-20T01:58:00.304Z,20.62
2022-08-20T02:00:29.762Z,20.61
2022-08-20T02:02:56.243Z,20.63
2022-08-20T02:05:23.164Z,20.63
2022-08-20T02:07:49.977Z,20.56
2022-08-20T02:10:17.365Z,20.49
2022-08-20T02:12:44.221Z,20.47
2022-08-20T02:15:11.334Z,20.50
2022-08-20T02:17:39.067Z,20.47
2022-08-20T02:20:14.054Z,20.52
2022-08-20T02:22:40.413Z,20.41
2022-08-20T02:25:12.467Z,20.21
2022-08-20T02:27:40.559Z,20.09
2022-08-20T02:30:19.272Z,20.09
2022-08-20T02:32:56.259Z,20.11
2022-08-20T02:35:27.219Z,19.94
2022-08-20T02:37:54.074Z,19.80
2022-08-20T02:40:27.367Z,19.79
2022-08-20T02:42:58.034Z,19.86
2022-08-20T02:45:24.454Z,19.70
2022-08-20T02:47:52.649Z,19.81
2022-08-20T02:50:22.090Z,19.95
2022-08-20T02:52:52.110Z,20.04
2022-08-20T02:55:27.095Z,20.11
2022-08-20T02:57:55.887Z,20.20
2022-08-20T03:00:26.048Z,20.13
2022-08-20T03:02:52.502Z,20.14
2022-08-20T03:05:18.948Z,20.24
2022-08-20T03:07:52.388Z,20.25
2022-08-20T03:10:22.359Z,20.22
2022-08-20T03:12:49.714Z,20.18
2022-08-20T03:15:17.275Z,20.01
2022-08-20T03:17:45.270Z,19.87
2022-08-20T03:20:12.496Z,19.80
2022-08-20T03:22:39.160Z,19.72
2022-08-20T03:25:06.007Z,19.59
2022-08-20T03:27:36.117Z,19.48
2022-08-20T03:30:04.125Z,19.38
2022-08-20T03:32:33.120Z,19.32
2022-08-20T03:34:59.960Z,19.39
2022-08-20T03:37:29.391Z,19.50
2022-08-20T03:39:55.864Z,19.34
2022-08-20T03:42:22.246Z,19.24
2022-08-20T03:44:49.228Z,19.23
2022-08-20T03:47:25.555Z,19.31
2022-08-20T03:49:51.990Z,19.36
2022-08-20T03:52:18.378Z,19.32
2022-08-20T03:54:46.016Z,19.30
2022-08-20T03:57:13.441Z,19.38
2022-08-20T03:59:42.563Z,19.36
2022-08-20T04:02:10.856Z,19.29
2022-08-20T04:04:38.327Z,19.26
2022-08-20T04:07:16.039Z,19.34
2022-08-20T04:09:43.742Z,19.37
2022-08-20T04:12:12.862Z,19.44
2022-08-20T04:14:40.273Z,19.53
2022-08-20T04:17:08.512Z,19.54
2022-08-20T04:19:35.856Z,19.54
2022-08-20T04:22:02.340Z,19.63
2022-08-20T04:24:32.139Z,19.64
2022-08-20T04:26:59.452Z,19.58
2022-08-20T04:29:26.181Z,19.58
2022-08-20T04:32:00.525Z,19.41
2022-08-20T04:34:27.547Z,19.43
2022-08-20T04:36:54.090Z,19.53
2022-08-20T04:39:20.506Z,19.65
2022-08-20T04:41:47.054Z,19.68
2022-08-20T04:44:13.647Z,19.58
2022-08-20T04:46:40.277Z,19.64
2022-08-20T04:49:07.209Z,19.66
2022-08-20T04:51:34.116Z,19.59
2022-08-20T04:54:00.933Z,19.69
2022-08-20T04:56:28.520Z,19.54
2022-08-20T04:58:56.839Z,19.43
2022-08-20T05:01:24.044Z,19.39
2022-08-20T05:03:51.233Z,19.39
2022-08-20T05:06:18.129Z,19.37
2022-08-20T05:08:44.976Z,19.34
2022-08-20T05:11:33.854Z,19.43
2022-08-20T05:14:01.052Z,19.55
2022-08-20T05:16:27.571Z,19.64
2022-08-20T05:18:54.067Z,19.60
2022-08-20T05:21:21.163Z,19.48
2022-08-20T05:23:50.711Z,19.54
2022-08-20T05:26:20.020Z,19.50
2022-08-20T05:28:57.842Z,19.49
2022-08-20T05:31:32.757Z,19.47
2022-08-20T05:34:11.599Z,19.52
2022-08-20T05:36:56.376Z,19.60
2022-08-20T05:39:26.203Z,19.59
2022-08-20T05:41:52.851Z,19.59
2022-08-20T05:44:19.511Z,19.60
2022-08-20T05:46:47.762Z,19.59
2022-08-20T05:49:16.339Z,19.64
2022-08-20T05:51:43.536Z,19.61
2022-08-20T05:54:09.983Z,19.61
2022-08-20T05:56:37.249Z,19.64
2022-08-20T05:59:07.552Z,19.67
2022-08-20T06:01:35.636Z,19.64
2022-08-20T06:04:21.627Z,19.69
2022-08-20T06:06:48.473Z,19.77
2022-08-20T06:09:16.317Z,19.89
2022-08-20T06:11:43.896Z,19.98
2022-08-20T06:14:10.437Z,20.08
2022-08-20T06:16:56.314Z,20.15
2022-08-20T06:19:25.132Z,20.18
2022-08-20T06:21:52.887Z,20.24
2022-08-20T06:24:21.271Z,20.32
2022-08-20T06:26:52.140Z,20.34
2022-08-20T06:29:19.340Z,20.34
2022-08-20T06:31:46.237Z,20.35
2022-08-20T06:34:12.657Z,20.38
2022-08-20T06:36:39.190Z,20.42
2022-08-20T06:39:05.782Z,20.41
2022-08-20T06:41:36.125Z,20.42
2022-08-20T06:44:04.806Z,20.47
2022-08-20T06:46:32.226Z,20.47
2022-08-20T06:48:58.780Z,20.44
2022-08-20T06:51:25.225Z,20.46
2022-08-20T06:53:51.617Z,20.50
2022-08-20T06:56:18.039Z,20.52
2022-08-20T06:58:46.385Z,20.60
2022-08-20T07:01:13.803Z,20.63
2022-08-20T07:03:42.158Z,20.69
2022-08-20T07:06:21.962Z,20.75
2022-08-20T07:08:48.393Z,20.79
2022-08-20T07:11:14.825Z,20.83
2022-08-20T07:13:41.995Z,20.86
2022-08-20T07:16:08.689Z,20.94
2022-08-20T07:18:35.147Z,20.93
2022-08-20T07:21:01.542Z,20.94
2022-08-20T07:23:28.317Z,20.95
2022-08-20T07:25:55.780Z,20.98
2022-08-20T07:28:28.759Z,21.00
2022-08-20T07:31:15.769Z,21.01
2022-08-20T07:33:44.476Z,21.08
2022-08-20T07:36:12.117Z,21.13
2022-08-20T07:38:38.657Z,21.10
2022-08-20T07:41:13.156Z,21.17
2022-08-20T07:43:40.346Z,21.24
2022-08-20T07:46:09.344Z,21.26
2022-08-20T07:48:43.020Z,21.27
2022-08-20T07:51:10.840Z,21.25
2022-08-20T07:53:39.025Z,21.27
2022-08-20T07:56:06.710Z,21.29
2022-08-20T07:58:35.300Z,21.36
2022-08-20T08:01:01.806Z,21.35
2022-08-20T08:03:40.942Z,21.36
2022-08-20T08:06:16.999Z,21.34
2022-08-20T08:08:55.457Z,21.32
2022-08-20T08:11:21.892Z,21.29
2022-08-20T08:13:48.298Z,21.28
2022-08-20T08:16:15.253Z,21.35
2022-08-20T08:18:45.241Z,21.42
2022-08-20T08:21:15.771Z,21.46
2022-08-20T08:23:44.630Z,21.46
2022-08-20T08:26:16.053Z,21.48
2022-08-20T08:28:45.734Z,21.50
2022-08-20T08:31:12.721Z,21.50
2022-08-20T08:33:40.781Z,21.52
2022-08-20T08:36:10.535Z,21.52
2022-08-20T08:38:38.050Z,21.47
2022-08-20T08:41:24.762Z,21.44
2022-08-20T08:43:59.214Z,21.52
2022-08-20T08:46:27.138Z,21.59
2022-08-20T08:48:56.484Z,21.61
2022-08-20T08:51:56.076Z,21.58
2022-08-20T08:54:24.891Z,21.50
2022-08-20T08:56:51.544Z,21.44
2022-08-20T08:59:18.961Z,21.36
2022-08-20T09:01:55.287Z,21.25
2022-08-20T09:04:23.818Z,21.22
2022-08-20T09:06:53.532Z,21.17
2022-08-20T09:09:22.778Z,21.25
2022-08-20T09:11:51.009Z,21.26
2022-08-20T09:14:17.531Z,21.25
2022-08-20T09:16:52.293Z,21.20
2022-08-20T09:19:20.168Z,21.21
2022-08-20T09:21:46.657Z,21.26
2022-08-20T09:24:13.231Z,21.33
2022-08-20T09:26:39.648Z,21.40
2022-08-20T09:29:06.153Z,21.45
2022-08-20T09:31:32.812Z,21.51
2022-08-20T09:33:59.762Z,21.56
2022-08-20T09:36:30.730Z,21.59
2022-08-20T09:38:59.488Z,21.56
2022-08-20T09:41:25.886Z,21.53
2022-08-20T09:43:55.154Z,21.56
2022-08-20T09:46:27.165Z,21.56
2022-08-20T09:48:54.080Z,21.58
2022-08-20T09:51:20.578Z,21.54
2022-08-20T09:53:47.234Z,21.57
2022-08-20T09:56:13.714Z,21.57
2022-08-20T09:58:47.247Z,21.57
2022-08-20T10:01:15.438Z,21.57
2022-08-20T10:03:42.940Z,21.59
2022-08-20T10:06:11.042Z,21.58
2022-08-20T10:08:37.906Z,21.58
2022-08-20T10:11:04.595Z,21.56
2022-08-20T10:13:30.998Z,21.53
2022-08-20T10:15:57.532Z,21.51
2022-08-20T10:18:26.583Z,21.53
2022-08-20T10:20:53.262Z,21.52
2022-08-20T10:23:19.763Z,21.51
2022-08-20T10:25:46.321Z,21.49
2022-08-20T10:28:12.819Z,21.52
2022-08-20T10:30:39.268Z,21.56
2022-08-20T10:33:06.467Z,21.64
2022-08-20T10:35:33.043Z,21.68
2022-08-20T10:37:59.565Z,21.75
2022-08-20T10:40:26.026Z,21.97
2022-08-20T10:42:52.436Z,22.08
2022-08-20T10:45:19.055Z,22.06
2022-08-20T10:47:45.516Z,22.09
2022-08-20T10:50:14.105Z,22.13
2022-08-20T10:52:40.555Z,22.09
2022-08-20T10:55:07.532Z,22.11
2022-08-20T10:57:33.926Z,22.18
2022-08-20T11:00:01.296Z,22.18
2022-08-20T11:02:29.395Z,22.15
2022-08-20T11:04:56.071Z,22.14
2022-08-20T11:07:53.505Z,22.14
2022-08-20T11:10:14.127Z,22.13
2022-08-20T11:12:41.028Z,22.26
2022-08-20T11:15:10.725Z,22.40
2022-08-20T11:17:39.443Z,22.51
2022-08-20T11:20:07.849Z,22.72
2022-08-20T11:22:38.060Z,22.82
2022-08-20T11:25:05.449Z,22.89
2022-08-20T11:27:34.392Z,22.88
2022-08-20T11:30:00.795Z,22.87
2022-08-20T11:32:27.300Z,22.95
2022-08-20T11:34:53.772Z,23.18
2022-08-20T11:37:21.897Z,23.31
2022-08-20T11:39:48.389Z,23.33
2022-08-20T11:42:15.222Z,23.88
2022-08-20T11:44:41.757Z,24.31
2022-08-20T11:47:08.329Z,24.13
2022-08-20T11:49:36.398Z,24.06
2022-08-20T11:52:04.328Z,24.35
2022-08-20T11:54:32.547Z,24.24
2022-08-20T11:56:59.570Z,23.95
2022-08-20T11:59:26.556Z,24.20
2022-08-20T12:02:03.272Z,24.49
2022-08-20T12:04:33.627Z,24.63
2022-08-20T12:07:07.513Z,24.35
2022-08-20T12:09:37.081Z,24.41
2022-08-20T12:12:08.431Z,24.62
2022-08-20T12:14:35.271Z,24.54
2022-08-20T12:17:12.339Z,24.57
2022-08-20T12:19:39.654Z,24.26
2022-08-20T12:22:25.049Z,24.05
2022-08-20T12:24:52.348Z,24.00
2022-08-20T12:27:24.001Z,23.87
2022-08-20T12:29:53.335Z,23.75
2022-08-20T12:32:20.636Z,23.69
2022-08-20T12:34:47.179Z,23.76
2022-08-20T12:37:16.197Z,23.74
2022-08-20T12:39:43.741Z,23.71
2022-08-20T12:42:10.954Z,23.67
2022-08-20T12:44:37.805Z,23.62
2022-08-20T12:47:16.402Z,23.63
2022-08-20T12:49:45.584Z,23.61
2022-08-20T12:52:12.396Z,23.51
2022-08-20T12:54:39.009Z,23.39
2022-08-20T12:57:07.988Z,23.29
2022-08-20T12:59:34.642Z,23.22
2022-08-20T13:02:14.286Z,23.22
2022-08-20T13:04:45.193Z,23.26
2022-08-20T13:07:12.954Z,23.21
2022-08-20T13:09:41.046Z,22.99
2022-08-20T13:12:07.931Z,22.74
2022-08-20T13:14:34.682Z,22.64
2022-08-20T13:17:01.544Z,22.55
2022-08-20T13:19:28.839Z,22.45
2022-08-20T13:21:55.370Z,22.37
2022-08-20T13:24:22.459Z,22.28
2022-08-20T13:26:49.701Z,22.24
2022-08-20T13:29:16.786Z,22.14
2022-08-20T13:31:43.527Z,22.06
2022-08-20T13:34:10.343Z,21.96
2022-08-20T13:36:37.069Z,21.82
2022-08-20T13:39:07.666Z,21.71
2022-08-20T13:41:34.612Z,21.60
2022-08-20T13:44:01.061Z,21.54
2022-08-20T13:46:27.476Z,21.57
2022-08-20T13:48:53.906Z,21.59
2022-08-20T13:51:23.626Z,21.60
2022-08-20T13:53:54.351Z,21.63
2022-08-20T13:56:23.981Z,21.65
2022-08-20T13:58:50.400Z,21.67
2022-08-20T14:01:19.660Z,21.81
2022-08-20T14:03:47.799Z,21.91
2022-08-20T14:06:14.191Z,21.89
2022-08-20T14:08:40.625Z,21.92
2022-08-20T14:11:07.067Z,22.03
2022-08-20T14:13:39.192Z,22.05
2022-08-20T14:16:21.457Z,22.09
2022-08-20T14:18:53.750Z,22.14
2022-08-20T14:21:20.210Z,22.19
2022-08-20T14:23:46.580Z,22.30
2022-08-20T14:26:12.971Z,22.53
2022-08-20T14:28:39.555Z,22.82
2022-08-20T14:31:08.703Z,23.08
2022-08-20T14:33:36.175Z,23.13
2022-08-20T14:36:02.968Z,23.24
2022-08-20T14:38:29.375Z,23.25
2022-08-20T14:40:55.949Z,23.14
2022-08-20T14:43:22.356Z,23.11
2022-08-20T14:45:48.818Z,22.89
2022-08-20T14:48:15.391Z,22.87
2022-08-20T14:50:41.834Z,22.82
2022-08-20T14:53:08.749Z,22.71
2022-08-20T14:55:37.344Z,22.72
2022-08-20T14:58:11.172Z,22.75
2022-08-20T15:00:37.842Z,22.73
2022-08-20T15:03:04.303Z,22.70
2022-08-20T15:05:31.491Z,22.69
2022-08-20T15:07:59.423Z,22.69
2022-08-20T15:10:28.007Z,22.64
2022-08-20T15:12:54.563Z,22.58
2022-08-20T15:15:21.664Z,22.54
2022-08-20T15:17:49.813Z,22.54
2022-08-20T15:20:21.141Z,22.46
2022-08-20T15:22:48.802Z,22.48
2022-08-20T15:25:16.499Z,22.54
2022-08-20T15:27:43.050Z,22.64
2022-08-20T15:30:11.468Z,22.66
2022-08-20T15:32:37.995Z,22.66
2022-08-20T15:35:09.875Z,22.69
2022-08-20T15:37:41.383Z,22.69
2022-08-20T15:40:09.412Z,22.66
2022-08-20T15:42:36.370Z,22.65
2022-08-20T15:45:09.731Z,22.68
2022-08-20T15:47:48.586Z,22.74
2022-08-20T15:50:21.316Z,22.77
2022-08-20T15:52:47.725Z,22.77
2022-08-20T15:55:15.747Z,22.77
2022-08-20T15:58:01.241Z,22.71
2022-08-20T16:00:39.938Z,22.60
2022-08-20T16:03:45.821Z,22.48
2022-08-20T16:06:20.075Z,22.51
2022-08-20T16:09:04.983Z,22.41
2022-08-20T16:11:34.393Z,22.40
2022-08-20T16:14:15.916Z,22.38
2022-08-20T16:16:47.731Z,22.35
2022-08-20T16:19:34.921Z,22.31
2022-08-20T16:22:03.144Z,22.28
2022-08-20T16:24:29.582Z,22.25
2022-08-20T16:27:01.558Z,22.27
2022-08-20T16:29:30.767Z,22.27
2022-08-20T16:32:10.207Z,22.28
2022-08-20T16:34:40.702Z,22.30
2022-08-20T16:37:25.240Z,22.34
2022-08-20T16:39:51.828Z,22.38
2022-08-20T16:42:20.877Z,22.43
2022-08-20T16:44:48.164Z,22.45
2022-08-20T16:47:17.137Z,22.50
2022-08-20T16:49:56.974Z,22.48
2022-08-20T16:52:23.427Z,22.43
2022-08-20T16:54:52.460Z,22.42
2022-08-20T16:57:22.603Z,22.40
2022-08-20T16:59:57.459Z,22.36
2022-08-20T17:02:24.834Z,22.33
2022-08-20T17:04:59.556Z,22.28
2022-08-20T17:07:41.653Z,22.23
2022-08-20T17:10:21.796Z,22.24
2022-08-20T17:12:52.223Z,22.24
2022-08-20T17:15:23.777Z,22.20
2022-08-20T17:17:53.200Z,22.17
2022-08-20T17:20:20.228Z,22.12
2022-08-20T17:23:10.969Z,22.12
2022-08-20T17:25:38.429Z,22.10
2022-08-20T17:28:18.158Z,22.03
2022-08-20T17:30:45.794Z,22.02
2022-08-20T17:33:21.165Z,22.03
2022-08-20T17:35:58.994Z,21.98
2022-08-20T17:38:31.297Z,21.92
2022-08-20T17:40:58.834Z,21.86
2022-08-20T17:43:26.853Z,21.81
2022-08-20T17:45:54.420Z,21.79
2022-08-20T17:48:25.982Z,21.72
2022-08-20T17:50:55.146Z,21.65
2022-08-20T17:53:26.526Z,21.54
2022-08-20T17:55:54.913Z,21.61
2022-08-20T17:58:32.458Z,21.51
2022-08-20T18:00:59.645Z,21.40
2022-08-20T18:03:27.213Z,21.28
2022-08-20T18:06:03.707Z,21.16
2022-08-20T18:08:30.886Z,21.08
2022-08-20T18:11:03.619Z,21.08
2022-08-20T18:13:53.044Z,20.99
2022-08-20T18:16:43.785Z,21.06
2022-08-20T18:19:17.560Z,21.11
2022-08-20T18:21:59.302Z,20.91
2022-08-20T18:24:38.850Z,20.77
2022-08-20T18:27:08.838Z,20.79
2022-08-20T18:29:40.654Z,20.66
2022-08-20T18:32:10.360Z,20.52
2022-08-20T18:34:39.283Z,20.56
2022-08-20T18:37:06.454Z,20.63
2022-08-20T18:39:34.481Z,20.65
2022-08-20T18:42:02.803Z,20.68
2022-08-20T18:44:40.269Z,20.58
2022-08-20T18:47:18.748Z,20.40
2022-08-20T18:49:45.172Z,20.30
2022-08-20T18:52:16.308Z,20.34
2022-08-20T18:54:48.979Z,20.48
2022-08-20T18:57:26.929Z,20.64
2022-08-20T19:00:14.435Z,20.75
2022-08-20T19:02:59.159Z,20.78
2022-08-20T19:05:52.200Z,20.81
2022-08-20T19:08:21.146Z,20.84
2022-08-20T19:11:10.691Z,20.84
2022-08-20T19:13:55.673Z,20.83
2022-08-20T19:16:28.737Z,20.80
2022-08-20T19:18:55.945Z,20.74
2022-08-20T19:21:25.052Z,20.71
2022-08-20T19:23:54.147Z,20.69
2022-08-20T19:26:25.035Z,20.67
2022-08-20T19:29:12.856Z,20.59
2022-08-20T19:31:46.208Z,20.60
2022-08-20T19:34:20.005Z,20.58
2022-08-20T19:37:27.741Z,20.58
2022-08-20T19:39:50.931Z,20.62
2022-08-20T19:42:22.904Z,20.65
2022-08-20T19:44:57.443Z,20.66
2022-08-20T19:47:32.849Z,20.65
2022-08-20T19:50:05.456Z,20.63
2022-08-20T19:52:34.931Z,20.59
2022-08-20T19:55:03.883Z,20.56
2022-08-20T19:57:30.701Z,20.60
2022-08-20T20:00:01.945Z,20.62
2022-08-20T20:02:29.887Z,20.64
2022-08-20T20:04:58.069Z,20.67
2022-08-20T20:07:36.655Z,20.72
2022-08-20T20:10:08.057Z,20.72
2022-08-20T20:12:34.564Z,20.68
2022-08-20T20:15:01.215Z,20.71
2022-08-20T20:17:38.557Z,20.65
2022-08-20T20:20:32.874Z,20.61
2022-08-20T20:23:06.395Z,20.56
2022-08-20T20:25:34.014Z,20.59
2022-08-20T20:28:20.717Z,20.59
2022-08-20T20:30:47.614Z,20.64
2022-08-20T20:33:19.436Z,20.61
2022-08-20T20:35:46.301Z,20.64
2022-08-20T20:38:26.748Z,20.66
2022-08-20T20:40:54.578Z,20.66
2022-08-20T20:43:27.521Z,20.66
2022-08-20T20:45:59.825Z,20.67
2022-08-20T20:48:27.866Z,20.70
2022-08-20T20:50:59.479Z,20.65
2022-08-20T20:53:29.334Z,20.61
2022-08-20T20:56:28.483Z,20.55
2022-08-20T20:58:55.888Z,20.50
2022-08-20T21:01:38.632Z,20.48
2022-08-20T21:04:09.382Z,20.39
2022-08-20T21:06:35.925Z,20.38
2022-08-20T21:09:02.809Z,20.35
2022-08-20T21:11:29.204Z,20.29
2022-08-20T21:13:55.635Z,20.26
2022-08-20T21:16:22.147Z,20.26
2022-08-20T21:18:48.703Z,20.23
2022-08-20T21:21:15.922Z,20.18
2022-08-20T21:23:42.444Z,20.15
2022-08-20T21:26:08.894Z,20.10
2022-08-20T21:28:35.502Z,20.08
2022-08-20T21:31:01.949Z,20.10
2022-08-20T21:33:28.434Z,20.07
2022-08-20T21:35:58.331Z,20.01
2022-08-20T21:38:28.329Z,19.98
2022-08-20T21:40:54.817Z,19.91
2022-08-20T21:43:27.480Z,19.90
2022-08-20T21:46:01.294Z,19.83
2022-08-20T21:48:28.990Z,19.85
2022-08-20T21:50:55.411Z,19.85
2022-08-20T21:53:24.597Z,19.81
2022-08-20T21:55:51.146Z,19.76
2022-08-20T21:58:19.566Z,19.68
2022-08-20T22:00:51.633Z,19.66
2022-08-20T22:03:20.125Z,19.69
2022-08-20T22:05:47.024Z,19.67
2022-08-20T22:08:13.533Z,19.69
2022-08-20T22:10:39.993Z,19.72
2022-08-20T22:13:07.046Z,19.73
2022-08-20T22:15:36.993Z,19.72
2022-08-20T22:18:03.558Z,19.70
2022-08-20T22:20:30.033Z,19.72
2022-08-20T22:22:57.499Z,19.71
2022-08-20T22:25:24.112Z,19.73
2022-08-20T22:27:50.525Z,19.73
2022-08-20T22:30:17.001Z,19.73
2022-08-20T22:32:51.406Z,19.77
2022-08-20T22:35:19.160Z,19.73
2022-08-20T22:37:45.817Z,19.69
2022-08-20T22:40:12.365Z,19.69
2022-08-20T22:42:38.834Z,19.64
2022-08-20T22:45:05.441Z,19.61
2022-08-20T22:47:41.707Z,19.63
2022-08-20T22:50:08.718Z,19.57
2022-08-20T22:52:37.179Z,19.58
2022-08-20T22:55:06.043Z,19.35
2022-08-20T22:57:34.272Z,19.23
2022-08-20T23:00:01.241Z,19.09
2022-08-20T23:02:27.971Z,19.11
2022-08-20T23:04:54.482Z,19.09
2022-08-20T23:07:22.235Z,19.02
2022-08-20T23:09:48.714Z,19.01
2022-08-20T23:12:15.176Z,18.98
2022-08-20T23:14:41.766Z,19.14
2022-08-20T23:17:14.052Z,19.04
2022-08-20T23:19:44.436Z,18.90
2022-08-20T23:22:13.126Z,18.81
2022-08-20T23:24:39.925Z,18.90
2022-08-20T23:27:07.337Z,19.02
2022-08-20T23:29:33.786Z,19.11
2022-08-20T23:32:00.526Z,18.97
2022-08-20T23:34:29.200Z,18.83
2022-08-20T23:36:56.597Z,18.93
2022-08-20T23:39:23.552Z,18.88
2022-08-20T23:41:50.334Z,18.75
2022-08-20T23:44:26.494Z,18.47
2022-08-20T23:46:54.675Z,18.20
2022-08-20T23:49:24.119Z,18.33
2022-08-20T23:51:50.533Z,18.53
2022-08-20T23:54:19.638Z,18.68
2022-08-20T23:56:46.049Z,18.81
2022-08-20T23:59:12.482Z,18.89
